createdAt,value
2023-10-20T00:01:17.504Z,22.30
2023-10-20T00:03:47.473Z,20.93
2023-10-20T00:06:18.185Z,20.80
2023-10-20T00:08:48.740Z,20.70
2023-10-20T00:11:21.432Z,21.80
2023-10-20T00:13:51.350Z,20.73
2023-10-20T00:16:27.696Z,23.30
2023-10-20T00:18:57.885Z,23.90
2023-10-20T00:21:28.068Z,22.83
2023-10-20T00:23:57.965Z,22.20
2023-10-20T00:26:30.561Z,21.90
2023-10-20T00:29:00.637Z,21.93
2023-10-20T00:31:31.322Z,22.93
2023-10-20T00:34:01.555Z,22.80
2023-10-20T00:36:31.780Z,23.53
2023-10-20T00:39:01.841Z,23.30
2023-10-20T00:41:36.172Z,23.77
2023-10-20T00:44:06.443Z,24.00
2023-10-20T00:46:36.399Z,21.60
2023-10-20T00:49:06.954Z,22.80
2023-10-20T00:51:36.925Z,22.90
2023-10-20T00:54:07.349Z,22.90
2023-10-20T00:56:39.921Z,23.87
2023-10-20T00:59:10.769Z,24.40
2023-10-20T01:01:40.981Z,25.80
2023-10-20T01:04:11.100Z,24.00
2023-10-20T01:06:41.359Z,22.97
2023-10-20T01:09:11.731Z,26.03
2023-10-20T01:11:44.319Z,24.10
2023-10-20T01:14:14.212Z,25.30
2023-10-20T01:16:44.166Z,24.97
2023-10-20T01:19:14.097Z,25.20
2023-10-20T01:21:44.018Z,25.17
2023-10-20T01:24:16.562Z,27.70
2023-10-20T01:26:46.982Z,25.20
2023-10-20T01:29:16.918Z,26.53
2023-10-20T01:31:46.884Z,26.40
2023-10-20T01:34:17.204Z,26.00
2023-10-20T01:36:47.570Z,25.83
2023-10-20T01:39:20.613Z,25.70
2023-10-20T01:41:50.797Z,27.00
2023-10-20T01:44:20.781Z,25.67
2023-10-20T01:46:52.873Z,25.53
2023-10-20T01:49:22.845Z,27.67
2023-10-20T01:51:52.773Z,28.20
2023-10-20T01:54:25.257Z,28.23
2023-10-20T01:56:55.167Z,28.50
2023-10-20T01:59:25.350Z,29.57
2023-10-20T02:01:55.330Z,28.00
2023-10-20T02:04:25.349Z,28.10
2023-10-20T02:06:55.261Z,27.50
2023-10-20T02:09:27.760Z,26.80
2023-10-20T02:11:59.592Z,27.63
2023-10-20T02:14:29.803Z,29.13
2023-10-20T02:16:59.763Z,26.57
2023-10-20T02:19:29.700Z,28.87
2023-10-20T02:22:00.893Z,28.70
2023-10-20T02:24:33.617Z,28.83
2023-10-20T02:27:03.650Z,29.53
2023-10-20T02:29:34.712Z,27.67
2023-10-20T02:32:04.703Z,27.63
2023-10-20T02:34:35.910Z,29.20
2023-10-20T02:37:05.877Z,28.27
2023-10-20T02:39:38.512Z,25.90
2023-10-20T02:42:08.667Z,26.07
2023-10-20T02:44:38.666Z,26.47
2023-10-20T02:47:09.572Z,27.17
2023-10-20T02:49:39.513Z,25.43
2023-10-20T02:52:09.393Z,24.13
2023-10-20T02:54:41.855Z,24.90
2023-10-20T02:57:11.796Z,24.90
2023-10-20T02:59:41.661Z,22.17
2023-10-20T03:02:11.621Z,24.13
2023-10-20T03:04:41.645Z,23.47
2023-10-20T03:07:12.303Z,24.10
2023-10-20T03:09:44.749Z,23.43
2023-10-20T03:12:15.382Z,23.73
2023-10-20T03:14:45.307Z,24.37
2023-10-20T03:17:16.180Z,25.60
2023-10-20T03:19:47.492Z,23.20
2023-10-20T03:22:17.336Z,21.70
2023-10-20T03:24:49.757Z,21.50
2023-10-20T03:27:19.702Z,23.40
2023-10-20T03:29:50.121Z,22.83
2023-10-20T03:32:20.194Z,23.73
2023-10-20T03:34:50.468Z,19.10
2023-10-20T03:37:20.331Z,21.40
2023-10-20T03:39:54.433Z,23.07
2023-10-20T03:42:24.314Z,20.80
2023-10-20T03:44:54.706Z,19.53
2023-10-20T03:47:29.291Z,20.83
2023-10-20T03:50:02.102Z,21.23
2023-10-20T03:52:32.048Z,21.87
2023-10-20T03:55:04.570Z,22.57
2023-10-20T03:57:35.434Z,21.30
2023-10-20T04:00:19.043Z,21.00
2023-10-20T04:02:52.419Z,24.07
2023-10-20T04:05:22.363Z,16.90
2023-10-20T04:07:52.294Z,21.43
2023-10-20T04:10:25.135Z,20.97
2023-10-20T04:12:55.368Z,22.70
2023-10-20T04:15:27.524Z,18.97
2023-10-20T04:17:58.060Z,20.47
2023-10-20T04:20:28.051Z,21.73
2023-10-20T04:23:00.089Z,20.87
2023-10-20T04:25:34.620Z,20.57
2023-10-20T04:28:13.386Z,20.17
2023-10-20T04:30:55.709Z,21.67
2023-10-20T04:33:38.156Z,20.17
2023-10-20T04:36:20.687Z,22.10
2023-10-20T04:39:14.643Z,19.30
2023-10-20T04:42:19.914Z,21.50
2023-10-20T04:44:55.599Z,19.90
2023-10-20T04:47:38.118Z,18.60
2023-10-20T04:50:21.244Z,19.47
2023-10-20T04:53:12.146Z,18.23
2023-10-20T04:56:06.102Z,18.53
2023-10-20T04:58:45.299Z,17.47
2023-10-20T05:01:22.742Z,16.90
2023-10-20T05:03:54.772Z,18.47
2023-10-20T05:06:27.856Z,17.67
2023-10-20T05:08:57.791Z,17.33
2023-10-20T05:11:29.069Z,18.83
2023-10-20T05:14:01.817Z,16.90
2023-10-20T05:16:35.186Z,15.83
2023-10-20T05:19:06.037Z,15.77
2023-10-20T05:21:39.784Z,16.33
2023-10-20T05:24:10.819Z,17.73
2023-10-20T05:26:40.869Z,17.67
2023-10-20T05:29:13.727Z,14.40
2023-10-20T05:31:43.748Z,16.27
2023-10-20T05:34:14.671Z,17.30
2023-10-20T05:36:45.738Z,16.87
2023-10-20T05:39:16.508Z,16.40
2023-10-20T05:41:47.411Z,17.30
2023-10-20T05:44:23.734Z,17.20
2023-10-20T05:46:54.741Z,15.73
2023-10-20T05:49:22.577Z,17.33
2023-10-20T05:51:53.117Z,16.50
2023-10-20T05:54:24.799Z,14.97
2023-10-20T05:56:54.626Z,15.77
2023-10-20T05:59:27.246Z,15.57
2023-10-20T06:01:59.744Z,13.50
2023-10-20T06:04:29.752Z,12.97
2023-10-20T06:07:00.361Z,13.27
2023-10-20T06:09:30.218Z,13.40
2023-10-20T06:12:00.856Z,14.17
2023-10-20T06:14:33.580Z,12.27
2023-10-20T06:17:03.605Z,11.70
2023-10-20T06:19:33.603Z,11.43
2023-10-20T06:22:04.523Z,12.70
2023-10-20T06:24:34.668Z,10.50
2023-10-20T06:27:07.065Z,10.87
2023-10-20T06:29:48.931Z,10.83
2023-10-20T06:32:27.402Z,10.80
2023-10-20T06:35:01.197Z,10.13
2023-10-20T06:37:37.583Z,9.33
2023-10-20T06:40:09.736Z,8.70
2023-10-20T06:42:39.569Z,10.27
2023-10-20T06:45:12.780Z,9.87
2023-10-20T06:47:44.178Z,10.73
2023-10-20T06:50:14.520Z,9.73
2023-10-20T06:52:44.460Z,10.30
2023-10-20T06:55:40.253Z,10.00
2023-10-20T06:58:01.644Z,11.10
2023-10-20T07:00:35.980Z,10.30
2023-10-20T07:03:06.235Z,10.13
2023-10-20T07:05:38.978Z,9.60
2023-10-20T07:08:09.490Z,9.77
2023-10-20T07:10:40.018Z,8.90
2023-10-20T07:13:12.062Z,7.50
2023-10-20T07:15:44.588Z,7.53
2023-10-20T07:18:15.051Z,8.60
2023-10-20T07:20:45.063Z,7.70
2023-10-20T07:23:15.037Z,6.00
2023-10-20T07:25:44.872Z,6.60
2023-10-20T07:28:15.037Z,5.70
2023-10-20T07:30:47.469Z,5.77
2023-10-20T07:33:17.564Z,4.90
2023-10-20T07:35:47.540Z,5.10
2023-10-20T07:38:18.638Z,5.10
2023-10-20T07:40:48.703Z,4.97
2023-10-20T07:43:18.524Z,4.90
2023-10-20T07:45:51.440Z,5.27
2023-10-20T07:48:21.399Z,4.50
2023-10-20T07:50:51.832Z,4.40
2023-10-20T07:53:21.776Z,4.33
2023-10-20T07:55:51.729Z,4.07
2023-10-20T07:58:21.629Z,3.67
2023-10-20T08:00:54.172Z,4.20
2023-10-20T08:03:24.808Z,4.53
2023-10-20T08:05:55.065Z,4.30
2023-10-20T08:08:25.127Z,3.83
2023-10-20T08:10:55.276Z,4.57
2023-10-20T08:13:25.137Z,4.37
2023-10-20T08:15:57.644Z,4.70
2023-10-20T08:18:29.560Z,4.03
2023-10-20T08:21:07.244Z,3.80
2023-10-20T08:23:37.255Z,3.80
2023-10-20T08:26:07.171Z,3.40
2023-10-20T08:28:39.382Z,3.00
2023-10-20T08:31:15.242Z,3.03
2023-10-20T08:33:45.231Z,2.90
2023-10-20T08:36:16.474Z,2.53
2023-10-20T08:38:48.726Z,2.87
2023-10-20T08:41:20.501Z,2.90
2023-10-20T08:43:50.554Z,2.20
2023-10-20T08:46:24.779Z,2.20
2023-10-20T08:48:56.949Z,2.20
2023-10-20T08:51:27.153Z,2.17
2023-10-20T08:53:58.001Z,2.03
2023-10-20T08:56:29.070Z,1.80
2023-10-20T08:58:59.104Z,2.10
2023-10-20T09:01:35.634Z,1.90
2023-10-20T09:04:06.438Z,1.60
2023-10-20T09:06:38.024Z,1.77
2023-10-20T09:09:09.537Z,1.47
2023-10-20T09:11:40.485Z,1.80
2023-10-20T09:14:11.555Z,1.23
2023-10-20T09:16:44.611Z,1.23
2023-10-20T09:19:15.882Z,2.33
2023-10-20T09:21:49.264Z,1.93
2023-10-20T09:24:19.223Z,1.47
2023-10-20T09:26:49.144Z,1.50
2023-10-20T09:29:19.708Z,1.80
2023-10-20T09:31:53.446Z,1.87
2023-10-20T09:34:24.449Z,1.60
2023-10-20T09:36:57.834Z,1.60
2023-10-20T09:39:37.259Z,1.40
2023-10-20T09:42:09.838Z,1.67
2023-10-20T09:44:43.160Z,1.53
2023-10-20T09:47:23.600Z,1.50
2023-10-20T09:49:54.271Z,1.20
2023-10-20T09:52:24.332Z,1.60
2023-10-20T09:54:57.316Z,1.20
2023-10-20T09:57:28.739Z,1.30
2023-10-20T09:59:58.768Z,1.53
2023-10-20T10:02:35.650Z,1.10
2023-10-20T10:05:05.595Z,1.60
2023-10-20T10:07:37.594Z,1.60
2023-10-20T10:10:09.032Z,1.00
2023-10-20T10:12:39.127Z,1.20
2023-10-20T10:15:14.018Z,1.30
2023-10-20T10:17:50.475Z,1.17
2023-10-20T10:20:27.059Z,1.50
2023-10-20T10:23:04.009Z,1.00
2023-10-20T10:25:38.216Z,1.00
2023-10-20T10:28:16.310Z,1.00
2023-10-20T10:30:47.231Z,1.20
2023-10-20T10:33:25.567Z,1.33
2023-10-20T10:36:11.502Z,1.10
2023-10-20T10:38:46.036Z,1.30
2023-10-20T10:41:15.997Z,1.10
2023-10-20T10:43:45.901Z,1.20
2023-10-20T10:46:15.806Z,1.10
2023-10-20T10:48:48.703Z,1.77
2023-10-20T10:51:18.670Z,1.23
2023-10-20T10:53:48.743Z,0.97
2023-10-20T10:56:19.108Z,1.23
2023-10-20T10:58:49.208Z,1.00
2023-10-20T11:01:19.212Z,0.90
2023-10-20T11:03:51.862Z,2.10
2023-10-20T11:06:22.044Z,1.80
2023-10-20T11:08:51.908Z,1.50
2023-10-20T11:11:21.792Z,1.00
2023-10-20T11:13:51.694Z,1.20
2023-10-20T11:16:24.210Z,1.10
2023-10-20T11:18:56.904Z,1.20
2023-10-20T11:21:26.739Z,1.23
2023-10-20T11:23:57.956Z,0.90
2023-10-20T11:26:28.030Z,0.83
2023-10-20T11:28:59.599Z,1.20
2023-10-20T11:31:33.158Z,1.00
2023-10-20T11:34:05.868Z,0.93
2023-10-20T11:36:35.788Z,1.00
2023-10-20T11:39:07.970Z,1.47
2023-10-20T11:41:35.300Z,1.70
2023-10-20T11:44:05.333Z,1.17
2023-10-20T11:46:35.179Z,1.20
2023-10-20T11:49:07.855Z,0.97
2023-10-20T11:51:37.696Z,1.30
2023-10-20T11:54:08.674Z,0.90
2023-10-20T11:56:38.524Z,1.17
2023-10-20T11:59:08.646Z,1.13
2023-10-20T12:01:38.692Z,1.00
2023-10-20T12:04:12.351Z,0.97
2023-10-20T12:06:43.707Z,1.33
2023-10-20T12:09:16.451Z,1.23
2023-10-20T12:11:46.878Z,1.00
2023-10-20T12:14:16.833Z,1.13
2023-10-20T12:16:46.882Z,0.90
2023-10-20T12:19:19.718Z,1.00
2023-10-20T12:21:49.891Z,0.80
2023-10-20T12:24:19.942Z,0.90
2023-10-20T12:26:50.047Z,0.97
2023-10-20T12:29:23.978Z,0.80
2023-10-20T12:31:54.015Z,1.07
2023-10-20T12:34:26.649Z,0.90
2023-10-20T12:36:56.524Z,1.20
2023-10-20T12:39:29.354Z,1.03
2023-10-20T12:42:03.905Z,0.90
2023-10-20T12:44:35.543Z,0.90
2023-10-20T12:47:07.476Z,0.97
2023-10-20T12:49:41.092Z,0.90
2023-10-20T12:52:10.960Z,1.00
2023-10-20T12:54:40.877Z,0.87
2023-10-20T12:57:10.854Z,0.90
2023-10-20T12:59:40.810Z,1.03
2023-10-20T13:02:11.125Z,0.90
2023-10-20T13:04:43.641Z,1.10
2023-10-20T13:07:15.019Z,0.90
2023-10-20T13:09:45.289Z,1.00
2023-10-20T13:12:15.194Z,0.93
2023-10-20T13:14:45.110Z,1.00
2023-10-20T13:17:15.901Z,1.00
2023-10-20T13:19:51.048Z,1.00
2023-10-20T13:22:20.976Z,1.03
2023-10-20T13:24:50.834Z,1.50
2023-10-20T13:27:20.711Z,1.30
2023-10-20T13:29:50.662Z,1.27
2023-10-20T13:32:20.579Z,0.90
2023-10-20T13:34:53.503Z,0.83
2023-10-20T13:37:23.411Z,1.00
2023-10-20T13:39:54.977Z,1.10
2023-10-20T13:42:24.938Z,1.00
2023-10-20T13:44:54.865Z,0.80
2023-10-20T13:47:27.590Z,1.00
2023-10-20T13:50:03.412Z,1.00
2023-10-20T13:52:33.289Z,1.30
2023-10-20T13:55:03.281Z,1.13
2023-10-20T13:57:33.215Z,1.27
2023-10-20T14:00:03.234Z,0.90
2023-10-20T14:02:37.554Z,1.23
2023-10-20T14:05:10.699Z,1.60
2023-10-20T14:07:40.646Z,1.90
2023-10-20T14:10:11.616Z,1.43
2023-10-20T14:12:41.527Z,1.70
2023-10-20T14:15:12.406Z,1.87
2023-10-20T14:17:42.399Z,1.50
2023-10-20T14:20:15.513Z,2.03
2023-10-20T14:22:45.754Z,1.43
2023-10-20T14:25:15.663Z,1.30
2023-10-20T14:27:45.587Z,1.90
2023-10-20T14:30:15.874Z,1.50
2023-10-20T14:32:45.958Z,1.60
2023-10-20T14:35:18.687Z,1.67
2023-10-20T14:37:48.607Z,1.60
2023-10-20T14:40:18.751Z,1.40
2023-10-20T14:42:48.704Z,1.37
2023-10-20T14:45:18.938Z,1.30
2023-10-20T14:47:48.896Z,1.63
2023-10-20T14:50:21.561Z,1.60
2023-10-20T14:52:53.512Z,1.70
2023-10-20T14:55:24.352Z,1.60
2023-10-20T14:57:54.240Z,1.80
2023-10-20T15:00:24.507Z,3.20
2023-10-20T15:02:54.935Z,3.07
2023-10-20T15:05:27.547Z,3.63
2023-10-20T15:07:57.588Z,2.03
2023-10-20T15:10:30.599Z,2.07
2023-10-20T15:13:00.552Z,2.38
2023-10-20T15:15:34.319Z,1.93
2023-10-20T15:18:05.009Z,2.07
2023-10-20T15:20:37.626Z,2.10
2023-10-20T15:23:17.399Z,1.87
2023-10-20T15:25:51.413Z,2.60
2023-10-20T15:28:22.284Z,2.23
2023-10-20T15:30:52.498Z,2.20
2023-10-20T15:33:36.354Z,1.87
2023-10-20T15:36:10.576Z,1.93
2023-10-20T15:38:40.987Z,2.17
2023-10-20T15:41:11.342Z,1.83
2023-10-20T15:43:41.321Z,1.90
2023-10-20T15:46:11.370Z,2.07
2023-10-20T15:48:51.163Z,1.97
2023-10-20T15:51:23.673Z,1.97
2023-10-20T15:53:53.590Z,1.87
2023-10-20T15:56:23.541Z,2.27
2023-10-20T15:58:53.437Z,1.70
2023-10-20T16:01:23.644Z,1.80
2023-10-20T16:03:53.697Z,2.53
2023-10-20T16:06:26.295Z,2.23
2023-10-20T16:08:56.558Z,2.60
2023-10-20T16:11:26.891Z,2.90
2023-10-20T16:13:56.868Z,2.90
2023-10-20T16:16:27.328Z,3.03
2023-10-20T16:18:57.760Z,3.40
2023-10-20T16:21:30.646Z,3.30
2023-10-20T16:24:00.691Z,3.43
2023-10-20T16:26:30.973Z,4.10
2023-10-20T16:29:00.938Z,4.27
2023-10-20T16:31:30.825Z,6.03
2023-10-20T16:34:00.869Z,5.60
2023-10-20T16:36:35.332Z,4.70
2023-10-20T16:39:05.681Z,3.97
2023-10-20T16:41:36.140Z,4.60
2023-10-20T16:44:06.081Z,4.20
2023-10-20T16:46:36.085Z,5.20
2023-10-20T16:49:06.072Z,4.80
2023-10-20T16:51:39.381Z,5.60
2023-10-20T16:54:09.629Z,4.93
2023-10-20T16:56:39.849Z,5.10
2023-10-20T16:59:09.787Z,4.90
2023-10-20T17:01:39.734Z,4.87
2023-10-20T17:04:09.926Z,4.60
2023-10-20T17:06:43.015Z,4.60
2023-10-20T17:09:14.899Z,4.70
2023-10-20T17:11:45.706Z,6.03
2023-10-20T17:14:15.688Z,10.47
2023-10-20T17:16:46.652Z,5.40
2023-10-20T17:19:16.543Z,5.03
2023-10-20T17:21:49.118Z,4.30
2023-10-20T17:24:19.014Z,4.53
2023-10-20T17:26:50.628Z,4.80
2023-10-20T17:29:20.608Z,3.90
2023-10-20T17:31:50.511Z,4.50
2023-10-20T17:34:20.493Z,5.10
2023-10-20T17:36:54.279Z,4.20
2023-10-20T17:39:24.233Z,5.37
2023-10-20T17:41:54.204Z,5.60
2023-10-20T17:44:24.784Z,5.70
2023-10-20T17:46:54.731Z,5.80
2023-10-20T17:49:24.610Z,21.93
2023-10-20T17:51:57.126Z,22.00
2023-10-20T17:54:27.012Z,7.70
2023-10-20T17:56:56.909Z,6.67
2023-10-20T17:59:26.848Z,4.60
2023-10-20T18:01:57.352Z,4.60
2023-10-20T18:04:27.886Z,4.40
2023-10-20T18:07:00.462Z,4.57
2023-10-20T18:09:30.354Z,5.03
2023-10-20T18:12:00.309Z,5.17
2023-10-20T18:14:30.255Z,4.90
2023-10-20T18:17:00.229Z,6.13
2023-10-20T18:19:30.154Z,7.13
2023-10-20T18:22:02.618Z,8.40
2023-10-20T18:24:32.767Z,7.10
2023-10-20T18:27:02.760Z,5.10
2023-10-20T18:29:32.850Z,4.90
2023-10-20T18:32:04.065Z,4.80
2023-10-20T18:34:33.941Z,5.40
2023-10-20T18:37:06.589Z,4.77
2023-10-20T18:39:36.698Z,4.80
2023-10-20T18:42:07.617Z,4.90
2023-10-20T18:44:38.154Z,5.63
2023-10-20T18:47:08.734Z,5.30
2023-10-20T18:49:38.638Z,5.33
2023-10-20T18:52:11.483Z,5.43
2023-10-20T18:54:41.356Z,5.40
2023-10-20T18:57:11.308Z,5.73
2023-10-20T18:59:41.210Z,4.90
2023-10-20T19:02:11.134Z,6.07
2023-10-20T19:04:41.257Z,6.10
2023-10-20T19:07:13.980Z,5.57
2023-10-20T19:09:44.159Z,4.87
2023-10-20T19:12:14.234Z,5.17
2023-10-20T19:14:44.190Z,6.43
2023-10-20T19:17:14.096Z,5.33
2023-10-20T19:19:44.325Z,11.20
2023-10-20T19:22:16.889Z,7.90
2023-10-20T19:24:46.867Z,5.53
2023-10-20T19:27:16.782Z,5.80
2023-10-20T19:29:46.716Z,6.40
2023-10-20T19:32:16.855Z,6.60
2023-10-20T19:34:46.759Z,5.87
2023-10-20T19:37:19.223Z,7.10
2023-10-20T19:39:49.451Z,6.60
2023-10-20T19:42:19.380Z,6.07
2023-10-20T19:44:50.469Z,5.70
2023-10-20T19:47:20.463Z,5.73
2023-10-20T19:49:50.344Z,6.10
2023-10-20T19:52:22.829Z,7.00
2023-10-20T19:54:53.279Z,6.00
2023-10-20T19:57:23.203Z,6.83
2023-10-20T19:59:54.059Z,6.87
2023-10-20T20:02:24.253Z,6.87
2023-10-20T20:04:55.566Z,6.10
2023-10-20T20:07:28.885Z,6.23
2023-10-20T20:09:58.760Z,6.47
2023-10-20T20:12:28.669Z,6.80
2023-10-20T20:14:58.577Z,6.90
2023-10-20T20:17:28.654Z,6.33
2023-10-20T20:19:59.254Z,6.03
2023-10-20T20:22:32.480Z,7.43
2023-10-20T20:25:02.356Z,7.20
2023-10-20T20:27:33.594Z,6.37
2023-10-20T20:30:05.645Z,6.87
2023-10-20T20:32:35.934Z,7.47
2023-10-20T20:35:07.490Z,7.33
2023-10-20T20:37:40.067Z,7.10
2023-10-20T20:40:11.556Z,7.00
2023-10-20T20:42:41.446Z,8.70
2023-10-20T20:45:12.818Z,7.77
2023-10-20T20:47:42.923Z,8.33
2023-10-20T20:50:22.187Z,7.70
2023-10-20T20:52:58.947Z,8.23
2023-10-20T20:55:28.867Z,7.23
2023-10-20T20:57:58.799Z,7.73
2023-10-20T21:00:28.696Z,7.63
2023-10-20T21:02:58.652Z,8.57
2023-10-20T21:05:28.746Z,9.30
2023-10-20T21:08:01.247Z,8.83
2023-10-20T21:10:32.257Z,9.03
2023-10-20T21:13:02.157Z,9.33
2023-10-20T21:15:32.055Z,8.53
2023-10-20T21:18:02.511Z,9.33
2023-10-20T21:20:32.570Z,9.47
2023-10-20T21:23:05.042Z,8.97
2023-10-20T21:25:39.322Z,8.67
2023-10-20T21:28:10.263Z,8.87
2023-10-20T21:30:40.275Z,8.87
2023-10-20T21:33:10.345Z,9.80
2023-10-20T21:35:44.597Z,9.50
2023-10-20T21:38:17.678Z,10.00
2023-10-20T21:40:50.734Z,10.67
2023-10-20T21:43:20.647Z,9.80
2023-10-20T21:45:58.292Z,10.27
2023-10-20T21:48:28.540Z,11.17
2023-10-20T21:50:59.292Z,11.03
2023-10-20T21:53:35.439Z,10.17
2023-10-20T21:56:06.940Z,10.30
2023-10-20T21:58:38.445Z,10.20
2023-10-20T22:01:10.304Z,10.20
2023-10-20T22:03:41.967Z,8.83
2023-10-20T22:06:12.461Z,10.80
2023-10-20T22:08:45.042Z,10.67
2023-10-20T22:11:15.288Z,11.03
2023-10-20T22:13:45.208Z,10.90
2023-10-20T22:16:15.559Z,10.50
2023-10-20T22:18:49.898Z,10.20
2023-10-20T22:21:20.027Z,10.90
2023-10-20T22:23:52.545Z,10.80
2023-10-20T22:26:22.460Z,12.20
2023-10-20T22:28:52.323Z,11.80
2023-10-20T22:31:23.330Z,12.60
2023-10-20T22:33:53.268Z,11.07
2023-10-20T22:36:23.183Z,12.20
2023-10-20T22:38:55.700Z,12.57
2023-10-20T22:41:26.492Z,11.40
2023-10-20T22:43:57.407Z,13.20
2023-10-20T22:46:27.320Z,12.23
2023-10-20T22:48:57.205Z,12.87
2023-10-20T22:51:27.079Z,11.90
2023-10-20T22:53:59.591Z,12.13
2023-10-20T22:56:32.257Z,12.53
2023-10-20T22:59:02.161Z,12.93
2023-10-20T23:01:32.036Z,12.00
2023-10-20T23:04:02.066Z,10.87
2023-10-20T23:06:32.018Z,11.50
2023-10-20T23:09:04.685Z,12.43
2023-10-20T23:11:34.696Z,12.37
2023-10-20T23:14:04.690Z,13.47
2023-10-20T23:16:34.530Z,11.90
2023-10-20T23:19:04.983Z,11.63
2023-10-20T23:21:34.835Z,11.73
2023-10-20T23:24:07.854Z,12.70
2023-10-20T23:26:37.798Z,11.37
2023-10-20T23:29:07.728Z,11.50
2023-10-20T23:31:37.574Z,12.07
2023-10-20T23:34:07.743Z,11.17
2023-10-20T23:36:37.613Z,11.63
2023-10-20T23:39:10.092Z,11.77
2023-10-20T23:41:40.081Z,11.70
2023-10-20T23:44:10.047Z,10.83
2023-10-20T23:46:39.941Z,9.43
2023-10-20T23:49:09.764Z,10.87
2023-10-20T23:51:39.613Z,11.60
2023-10-20T23:54:12.201Z,11.33
2023-10-20T23:56:42.072Z,10.60
2023-10-20T23:59:11.904Z,11.20
